sensor_id;sensor_type;location;lat;lon;timestamp;pressure;altitude;pressure_sealevel;temperature;humidity
48862;BME280;34681;49.188;-0.374;2023-09-19T00:02:01;101056.66;;;23.50;55.18
48862;BME280;34681;49.188;-0.374;2023-09-19T00:04:26;101051.06;;;23.50;55.18
48862;BME280;34681;49.188;-0.374;2023-09-19T00:06:54;101061.59;;;23.48;55.08
48862;BME280;34681;49.188;-0.374;2023-09-19T00:09:19;101063.53;;;23.47;55.20
48862;BME280;34681;49.188;-0.374;2023-09-19T00:11:45;101069.75;;;23.49;55.16
48862;BME280;34681;49.188;-0.374;2023-09-19T00:14:12;101065.72;;;23.45;55.14
48862;BME280;34681;49.188;-0.374;2023-09-19T00:16:39;101073.22;;;23.45;55.14
48862;BME280;34681;49.188;-0.374;2023-09-19T00:19:06;101066.56;;;23.46;55.28
48862;BME280;34681;49.188;-0.374;2023-09-19T00:21:34;101073.84;;;23.47;55.20
48862;BME280;34681;49.188;-0.374;2023-09-19T00:24:00;101071.06;;;23.47;55.31
48862;BME280;34681;49.188;-0.374;2023-09-19T00:26:26;101073.22;;;23.45;55.36
48862;BME280;34681;49.188;-0.374;2023-09-19T00:28:55;101070.22;;;23.46;54.98
48862;BME280;34681;49.188;-0.374;2023-09-19T00:31:22;101076.03;;;23.45;55.41
48862;BME280;34681;49.188;-0.374;2023-09-19T00:33:50;101073.47;;;23.43;55.37
48862;BME280;34681;49.188;-0.374;2023-09-19T00:36:16;101076.03;;;23.45;55.32
48862;BME280;34681;49.188;-0.374;2023-09-19T00:38:43;101075.41;;;23.43;55.25
48862;BME280;34681;49.188;-0.374;2023-09-19T00:41:10;101069.59;;;23.44;55.31
48862;BME280;34681;49.188;-0.374;2023-09-19T00:43:38;101078.81;;;23.45;55.42
48862;BME280;34681;49.188;-0.374;2023-09-19T00:46:05;101073.47;;;23.43;55.47
48862;BME280;34681;49.188;-0.374;2023-09-19T00:48:31;101075.16;;;23.44;55.33
48862;BME280;34681;49.188;-0.374;2023-09-19T00:51:02;101070.44;;;23.45;55.20
48862;BME280;34681;49.188;-0.374;2023-09-19T00:53:30;101073.69;;;23.42;55.24
48862;BME280;34681;49.188;-0.374;2023-09-19T00:55:56;101075.59;;;23.41;55.43
48862;BME280;34681;49.188;-0.374;2023-09-19T00:58:21;101071.94;;;23.41;55.40
48862;BME280;34681;49.188;-0.374;2023-09-19T01:00:48;101065.31;;;23.42;55.08
48862;BME280;34681;49.188;-0.374;2023-09-19T01:03:14;101075.59;;;23.41;55.12
48862;BME280;34681;49.188;-0.374;2023-09-19T01:05:40;101080.31;;;23.41;55.40
48862;BME280;34681;49.188;-0.374;2023-09-19T01:08:05;101082.50;;;23.39;55.47
48862;BME280;34681;49.188;-0.374;2023-09-19T01:10:32;101086.13;;;23.39;55.30
48862;BME280;34681;49.188;-0.374;2023-09-19T01:13:28;101081.84;;;23.43;55.16
48862;BME280;34681;49.188;-0.374;2023-09-19T01:16:25;101072.81;;;23.41;55.07
48862;BME280;34681;49.188;-0.374;2023-09-19T01:19:06;101078.22;;;23.36;55.27
48862;BME280;34681;49.188;-0.374;2023-09-19T01:30:20;101086.81;;;23.35;55.21
48862;BME280;34681;49.188;-0.374;2023-09-19T01:32:51;101079.72;;;23.32;55.54
48862;BME280;34681;49.188;-0.374;2023-09-19T01:35:17;101080.81;;;23.31;55.45
48862;BME280;34681;49.188;-0.374;2023-09-19T01:37:44;101081.66;;;23.32;55.31
48862;BME280;34681;49.188;-0.374;2023-09-19T01:40:12;101077.59;;;23.34;55.28
48862;BME280;34681;49.188;-0.374;2023-09-19T01:48:25;101070.06;;;23.35;55.34
48862;BME280;34681;49.188;-0.374;2023-09-19T01:51:05;101067.28;;;23.35;55.17
48862;BME280;34681;49.188;-0.374;2023-09-19T01:56:12;101070.50;;;23.32;55.41
48862;BME280;34681;49.188;-0.374;2023-09-19T01:58:52;101070.28;;;23.33;55.20
48862;BME280;34681;49.188;-0.374;2023-09-19T02:01:22;101073.53;;;23.30;55.22
48862;BME280;34681;49.188;-0.374;2023-09-19T02:03:50;101074.59;;;23.29;55.38
48862;BME280;34681;49.188;-0.374;2023-09-19T02:06:16;101073.53;;;23.30;55.27
48862;BME280;34681;49.188;-0.374;2023-09-19T02:08:42;101073.75;;;23.29;55.30
48862;BME280;34681;49.188;-0.374;2023-09-19T02:11:08;101076.31;;;23.30;55.24
48862;BME280;34681;49.188;-0.374;2023-09-19T02:13:33;101072.66;;;23.30;55.52
48862;BME280;34681;49.188;-0.374;2023-09-19T02:15:59;101070.97;;;23.29;55.41
48862;BME280;34681;49.188;-0.374;2023-09-19T02:18:25;101067.53;;;23.26;55.34
48862;BME280;34681;49.188;-0.374;2023-09-19T02:20:53;101064.53;;;23.28;55.39
48862;BME280;34681;49.188;-0.374;2023-09-19T02:23:18;101068.16;;;23.29;55.40
48862;BME280;34681;49.188;-0.374;2023-09-19T02:25:54;101065.78;;;23.32;55.40
48862;BME280;34681;49.188;-0.374;2023-09-19T02:28:20;101063.44;;;23.29;55.30
48862;BME280;34681;49.188;-0.374;2023-09-19T02:30:48;101072.03;;;23.27;55.19
48862;BME280;34681;49.188;-0.374;2023-09-19T02:33:14;101067.53;;;23.26;55.24
48862;BME280;34681;49.188;-0.374;2023-09-19T02:35:39;101064.09;;;23.24;55.43
48862;BME280;34681;49.188;-0.374;2023-09-19T02:38:05;101054.44;;;23.27;55.47
48862;BME280;34681;49.188;-0.374;2023-09-19T02:40:32;101057.22;;;23.27;55.28
48862;BME280;34681;49.188;-0.374;2023-09-19T02:43:00;101064.53;;;23.28;55.51
48862;BME280;34681;49.188;-0.374;2023-09-19T02:45:27;101051.66;;;23.27;55.49
48862;BME280;34681;49.188;-0.374;2023-09-19T02:47:52;101048.00;;;23.26;55.59
48862;BME280;34681;49.188;-0.374;2023-09-19T02:50:18;101050.78;;;23.26;55.65
48862;BME280;34681;49.188;-0.374;2023-09-19T02:52:44;101051.88;;;23.25;55.19
48862;BME280;34681;49.188;-0.374;2023-09-19T02:55:12;101060.03;;;23.27;55.12
48862;BME280;34681;49.188;-0.374;2023-09-19T02:57:39;101061.31;;;23.24;55.33
48862;BME280;34681;49.188;-0.374;2023-09-19T03:00:08;101065.84;;;23.25;55.53
48862;BME280;34681;49.188;-0.374;2023-09-19T03:02:36;101069.66;;;23.24;55.55
48862;BME280;34681;49.188;-0.374;2023-09-19T03:05:01;101060.44;;;23.24;55.47
48862;BME280;34681;49.188;-0.374;2023-09-19T03:07:28;101061.31;;;23.24;55.35
48862;BME280;34681;49.188;-0.374;2023-09-19T03:09:54;101060.44;;;23.24;55.19
48862;BME280;34681;49.188;-0.374;2023-09-19T03:12:20;101058.50;;;23.24;55.19
48862;BME280;34681;49.188;-0.374;2023-09-19T03:14:46;101066.03;;;23.24;55.41
48862;BME280;34681;49.188;-0.374;2023-09-19T03:17:11;101062.38;;;23.23;55.53
48862;BME280;34681;49.188;-0.374;2023-09-19T03:19:39;101064.31;;;23.23;55.30
48862;BME280;34681;49.188;-0.374;2023-09-19T03:22:06;101064.09;;;23.24;55.36
48862;BME280;34681;49.188;-0.374;2023-09-19T03:24:31;101054.00;;;23.23;55.51
48862;BME280;34681;49.188;-0.374;2023-09-19T03:26:58;101058.75;;;23.23;55.53
48862;BME280;34681;49.188;-0.374;2023-09-19T03:29:24;101057.66;;;23.24;55.39
48862;BME280;34681;49.188;-0.374;2023-09-19T03:31:50;101054.88;;;23.24;55.34
48862;BME280;34681;49.188;-0.374;2023-09-19T03:34:16;101060.69;;;23.22;55.45
48862;BME280;34681;49.188;-0.374;2023-09-19T03:36:42;101060.69;;;23.22;55.41
48862;BME280;34681;49.188;-0.374;2023-09-19T03:39:07;101047.81;;;23.21;55.45
48862;BME280;34681;49.188;-0.374;2023-09-19T03:41:32;101055.09;;;23.22;55.34
48862;BME280;34681;49.188;-0.374;2023-09-19T03:43:58;101060.69;;;23.22;55.17
48862;BME280;34681;49.188;-0.374;2023-09-19T03:46:23;101058.97;;;23.21;55.16
48862;BME280;34681;49.188;-0.374;2023-09-19T03:48:50;101055.31;;;23.21;55.64
48862;BME280;34681;49.188;-0.374;2023-09-19T03:51:15;101063.06;;;23.19;55.44
48862;BME280;34681;49.188;-0.374;2023-09-19T03:53:41;101063.91;;;23.19;55.31
48862;BME280;34681;49.188;-0.374;2023-09-19T03:56:06;101072.91;;;23.21;55.22
48862;BME280;34681;49.188;-0.374;2023-09-19T03:58:33;101075.94;;;23.20;55.39
48862;BME280;34681;49.188;-0.374;2023-09-19T04:01:03;101072.28;;;23.19;55.34
48862;BME280;34681;49.188;-0.374;2023-09-19T04:03:28;101062.22;;;23.18;55.25
48862;BME280;34681;49.188;-0.374;2023-09-19T04:06:00;101072.06;;;23.21;55.20
48862;BME280;34681;49.188;-0.374;2023-09-19T04:08:26;101064.78;;;23.20;55.32
48862;BME280;34681;49.188;-0.374;2023-09-19T04:10:51;101063.69;;;23.21;55.39
48862;BME280;34681;49.188;-0.374;2023-09-19T04:13:17;101060.28;;;23.19;55.32
48862;BME280;34681;49.188;-0.374;2023-09-19T04:15:42;101061.34;;;23.18;55.43
48862;BME280;34681;49.188;-0.374;2023-09-19T04:18:08;101062.84;;;23.20;55.33
48862;BME280;34681;49.188;-0.374;2023-09-19T04:20:33;101055.78;;;23.18;55.57
48862;BME280;34681;49.188;-0.374;2023-09-19T04:22:58;101048.44;;;23.17;55.58
48862;BME280;34681;49.188;-0.374;2023-09-19T04:25:25;101054.69;;;23.19;55.21
48862;BME280;34681;49.188;-0.374;2023-09-19T04:27:51;101055.78;;;23.18;55.27
48862;BME280;34681;49.188;-0.374;2023-09-19T04:30:17;101061.34;;;23.18;55.35
48862;BME280;34681;49.188;-0.374;2023-09-19T04:32:42;101059.41;;;23.18;55.58
48862;BME280;34681;49.188;-0.374;2023-09-19T04:35:09;101059.41;;;23.18;55.44
48862;BME280;34681;49.188;-0.374;2023-09-19T04:37:39;101060.03;;;23.20;55.36
48862;BME280;34681;49.188;-0.374;2023-09-19T04:40:09;101065.84;;;23.19;55.26
48862;BME280;34681;49.188;-0.374;2023-09-19T04:42:38;101066.09;;;23.17;55.42
48862;BME280;34681;49.188;-0.374;2023-09-19T04:45:04;101064.16;;;23.18;55.45
48862;BME280;34681;49.188;-0.374;2023-09-19T04:47:30;101064.16;;;23.18;55.57
48862;BME280;34681;49.188;-0.374;2023-09-19T04:49:55;101057.72;;;23.17;55.15
48862;BME280;34681;49.188;-0.374;2023-09-19T04:52:21;101053.19;;;23.16;55.25
48862;BME280;34681;49.188;-0.374;2023-09-19T04:54:47;101063.28;;;23.17;55.41
48862;BME280;34681;49.188;-0.374;2023-09-19T04:57:13;101063.28;;;23.17;55.53
48862;BME280;34681;49.188;-0.374;2023-09-19T04:59:39;101064.34;;;23.16;55.56
48862;BME280;34681;49.188;-0.374;2023-09-19T05:02:06;101068.22;;;23.15;55.52
48862;BME280;34681;49.188;-0.374;2023-09-19T05:04:33;101068.22;;;23.15;55.50
48862;BME280;34681;49.188;-0.374;2023-09-19T05:06:58;101072.72;;;23.16;55.43
48862;BME280;34681;49.188;-0.374;2023-09-19T05:09:23;101069.94;;;23.16;55.31
48862;BME280;34681;49.188;-0.374;2023-09-19T05:11:50;101071.66;;;23.17;55.27
48862;BME280;34681;49.188;-0.374;2023-09-19T05:14:16;101068.00;;;23.17;55.28
48862;BME280;34681;49.188;-0.374;2023-09-19T05:16:41;101068.88;;;23.17;55.40
48862;BME280;34681;49.188;-0.374;2023-09-19T05:19:07;101061.56;;;23.16;55.47
48862;BME280;34681;49.188;-0.374;2023-09-19T05:21:36;101054.91;;;23.17;55.21
48862;BME280;34681;49.188;-0.374;2023-09-19T05:24:04;101058.56;;;23.18;55.46
48862;BME280;34681;49.188;-0.374;2023-09-19T05:26:31;101051.03;;;23.18;55.12
48862;BME280;34681;49.188;-0.374;2023-09-19T05:28:57;101052.75;;;23.19;55.30
48862;BME280;34681;49.188;-0.374;2023-09-19T05:31:22;101047.19;;;23.19;55.42
48862;BME280;34681;49.188;-0.374;2023-09-19T05:33:48;101052.75;;;23.19;55.37
48862;BME280;34681;49.188;-0.374;2023-09-19T05:36:14;101051.91;;;23.19;55.51
48862;BME280;34681;49.188;-0.374;2023-09-19T05:38:42;101060.50;;;23.17;55.26
48862;BME280;34681;49.188;-0.374;2023-09-19T05:41:07;101059.41;;;23.18;55.25
48862;BME280;34681;49.188;-0.374;2023-09-19T05:43:34;101057.50;;;23.19;55.32
48862;BME280;34681;49.188;-0.374;2023-09-19T05:46:03;101057.50;;;23.19;55.53
48862;BME280;34681;49.188;-0.374;2023-09-19T05:48:28;101052.97;;;23.18;55.14
48862;BME280;34681;49.188;-0.374;2023-09-19T05:50:53;101053.84;;;23.18;55.31
48862;BME280;34681;49.188;-0.374;2023-09-19T05:53:19;101053.84;;;23.18;55.30
48862;BME280;34681;49.188;-0.374;2023-09-19T05:55:44;101044.38;;;23.19;55.30
48862;BME280;34681;49.188;-0.374;2023-09-19T05:58:10;101053.63;;;23.20;55.31
48862;BME280;34681;49.188;-0.374;2023-09-19T06:00:39;101044.38;;;23.19;55.18
48862;BME280;34681;49.188;-0.374;2023-09-19T06:03:06;101045.47;;;23.18;55.23
48862;BME280;34681;49.188;-0.374;2023-09-19T06:05:32;101042.44;;;23.20;55.08
48862;BME280;34681;49.188;-0.374;2023-09-19T06:07:57;101045.25;;;23.20;55.13
48862;BME280;34681;49.188;-0.374;2023-09-19T06:10:30;101041.81;;;23.18;55.28
48862;BME280;34681;49.188;-0.374;2023-09-19T06:12:57;101045.25;;;23.20;55.38
48862;BME280;34681;49.188;-0.374;2023-09-19T06:15:23;101046.09;;;23.20;55.19
48862;BME280;34681;49.188;-0.374;2023-09-19T06:17:51;101057.25;;;23.20;55.18
48862;BME280;34681;49.188;-0.374;2023-09-19T06:20:17;101057.03;;;23.22;55.08
48862;BME280;34681;49.188;-0.374;2023-09-19T06:22:44;101061.53;;;23.23;55.27
48862;BME280;34681;49.188;-0.374;2023-09-19T06:25:11;101054.25;;;23.22;55.46
48862;BME280;34681;49.188;-0.374;2023-09-19T06:27:41;101053.38;;;23.21;55.24
48862;BME280;34681;49.188;-0.374;2023-09-19T06:30:10;101053.16;;;23.23;55.30
48862;BME280;34681;49.188;-0.374;2023-09-19T06:32:40;101043.06;;;23.22;55.38
48862;BME280;34681;49.188;-0.374;2023-09-19T06:35:09;101048.44;;;23.23;55.39
48862;BME280;34681;49.188;-0.374;2023-09-19T06:37:36;101039.63;;;23.26;55.35
48862;BME280;34681;49.188;-0.374;2023-09-19T06:42:34;101053.34;;;23.28;55.19
48862;BME280;34681;49.188;-0.374;2023-09-19T06:45:00;101044.75;;;23.30;55.15
48862;BME280;34681;49.188;-0.374;2023-09-19T06:47:25;101044.53;;;23.31;55.26
48862;BME280;34681;49.188;-0.374;2023-09-19T06:49:51;101047.09;;;23.33;55.15
48862;BME280;34681;49.188;-0.374;2023-09-19T06:52:17;101054.19;;;23.35;55.08
48862;BME280;34681;49.188;-0.374;2023-09-19T06:54:44;101043.00;;;23.35;54.94
48862;BME280;34681;49.188;-0.374;2023-09-19T06:57:10;101045.56;;;23.37;55.08
48862;BME280;34681;49.188;-0.374;2023-09-19T06:59:35;101052.88;;;23.38;55.24
48862;BME280;34681;49.188;-0.374;2023-09-19T07:02:02;101044.25;;;23.39;54.81
48862;BME280;34681;49.188;-0.374;2023-09-19T07:04:27;101044.03;;;23.41;55.14
48862;BME280;34681;49.188;-0.374;2023-09-19T07:06:53;101036.94;;;23.45;54.86
48862;BME280;34681;49.188;-0.374;2023-09-19T07:09:18;101036.69;;;23.46;55.08
48862;BME280;34681;49.188;-0.374;2023-09-19T07:11:47;101038.63;;;23.46;55.01
48862;BME280;34681;49.188;-0.374;2023-09-19T07:14:13;101036.69;;;23.46;54.70
48862;BME280;34681;49.188;-0.374;2023-09-19T07:16:38;101036.06;;;23.44;54.99
48862;BME280;34681;49.188;-0.374;2023-09-19T07:19:05;101037.78;;;23.45;54.62
48862;BME280;34681;49.188;-0.374;2023-09-19T07:21:31;101039.72;;;23.45;54.96
48862;BME280;34681;49.188;-0.374;2023-09-19T07:23:59;101035.00;;;23.45;54.87
48862;BME280;34681;49.188;-0.374;2023-09-19T07:26:26;101034.75;;;23.47;54.90
48862;BME280;34681;49.188;-0.374;2023-09-19T07:28:52;101025.72;;;23.51;54.78
48862;BME280;34681;49.188;-0.374;2023-09-19T07:31:18;101032.13;;;23.59;54.54
48862;BME280;34681;49.188;-0.374;2023-09-19T07:33:43;101031.88;;;23.67;54.49
48862;BME280;34681;49.188;-0.374;2023-09-19T07:36:10;101038.72;;;23.71;54.45
48862;BME280;34681;49.188;-0.374;2023-09-19T07:38:36;101042.78;;;23.75;54.33
48862;BME280;34681;49.188;-0.374;2023-09-19T07:41:01;101050.28;;;23.74;54.10
48862;BME280;34681;49.188;-0.374;2023-09-19T07:43:28;101032.47;;;23.75;54.22
48862;BME280;34681;49.188;-0.374;2023-09-19T07:45:53;101051.16;;;23.75;54.30
48862;BME280;34681;49.188;-0.374;2023-09-19T07:48:18;101048.56;;;23.73;54.15
48862;BME280;34681;49.188;-0.374;2023-09-19T07:50:43;101044.06;;;23.72;54.15
48862;BME280;34681;49.188;-0.374;2023-09-19T07:53:09;101041.91;;;23.74;54.23
48862;BME280;34681;49.188;-0.374;2023-09-19T07:55:34;101040.09;;;23.87;54.13
48862;BME280;34681;49.188;-0.374;2023-09-19T07:58:00;101039.00;;;23.88;53.67
48862;BME280;34681;49.188;-0.374;2023-09-19T08:00:25;101036.22;;;23.88;53.65
48862;BME280;34681;49.188;-0.374;2023-09-19T08:02:51;101045.88;;;23.92;53.92
48862;BME280;34681;49.188;-0.374;2023-09-19T08:05:17;101039.63;;;23.90;53.58
48862;BME280;34681;49.188;-0.374;2023-09-19T08:07:44;101039.63;;;23.90;53.72
48862;BME280;34681;49.188;-0.374;2023-09-19T08:10:17;101030.63;;;23.88;53.72
48862;BME280;34681;49.188;-0.374;2023-09-19T08:12:45;101040.72;;;23.89;53.54
48862;BME280;34681;49.188;-0.374;2023-09-19T08:15:19;101041.75;;;23.94;53.83
48862;BME280;34681;49.188;-0.374;2023-09-19T08:17:48;101034.47;;;23.93;53.71
48862;BME280;34681;49.188;-0.374;2023-09-19T08:20:14;101037.66;;;23.97;53.83
48862;BME280;34681;49.188;-0.374;2023-09-19T08:22:43;101029.88;;;23.99;53.63
48862;BME280;34681;49.188;-0.374;2023-09-19T08:25:11;101035.47;;;23.99;53.61
48862;BME280;34681;49.188;-0.374;2023-09-19T08:27:37;101029.69;;;24.00;53.60
48862;BME280;34681;49.188;-0.374;2023-09-19T08:30:03;101036.13;;;24.01;53.72
48862;BME280;34681;49.188;-0.374;2023-09-19T08:32:29;101034.19;;;24.01;53.72
48862;BME280;34681;49.188;-0.374;2023-09-19T08:34:54;101047.94;;;24.03;53.66
48862;BME280;34681;49.188;-0.374;2023-09-19T08:37:19;101040.41;;;24.03;53.62
48862;BME280;34681;49.188;-0.374;2023-09-19T08:39:45;101035.66;;;24.04;53.43
48862;BME280;34681;49.188;-0.374;2023-09-19T08:42:10;101037.13;;;24.06;53.48
48862;BME280;34681;49.188;-0.374;2023-09-19T08:44:37;101027.66;;;24.07;53.62
48862;BME280;34681;49.188;-0.374;2023-09-19T08:47:15;101037.94;;;24.14;53.46
48862;BME280;34681;49.188;-0.374;2023-09-19T08:49:50;101049.34;;;24.12;53.54
48862;BME280;34681;49.188;-0.374;2023-09-19T08:52:32;101040.72;;;24.14;53.60
48862;BME280;34681;49.188;-0.374;2023-09-19T08:55:02;101032.19;;;24.08;53.35
48862;BME280;34681;49.188;-0.374;2023-09-19T08:57:36;101045.69;;;24.12;53.33
48862;BME280;34681;49.188;-0.374;2023-09-19T09:00:07;101039.25;;;24.11;53.48
48862;BME280;34681;49.188;-0.374;2023-09-19T09:02:39;101042.03;;;24.11;53.48
48862;BME280;34681;49.188;-0.374;2023-09-19T09:05:07;101032.19;;;24.08;53.69
48862;BME280;34681;49.188;-0.374;2023-09-19T09:07:35;101046.16;;;24.08;53.56
48862;BME280;34681;49.188;-0.374;2023-09-19T09:10:02;101035.19;;;24.07;53.64
48862;BME280;34681;49.188;-0.374;2023-09-19T09:12:29;101041.63;;;24.07;53.49
48862;BME280;34681;49.188;-0.374;2023-09-19T09:14:54;101036.50;;;24.04;53.49
48862;BME280;34681;49.188;-0.374;2023-09-19T09:17:22;101035.41;;;24.05;53.45
48862;BME280;34681;49.188;-0.374;2023-09-19T09:19:48;101036.28;;;24.06;53.55
48862;BME280;34681;49.188;-0.374;2023-09-19T09:22:13;101036.50;;;24.04;53.67
48862;BME280;34681;49.188;-0.374;2023-09-19T09:24:54;101029.16;;;24.10;53.56
48862;BME280;34681;49.188;-0.374;2023-09-19T09:27:23;101027.03;;;24.05;53.77
48862;BME280;34681;49.188;-0.374;2023-09-19T09:29:50;101026.81;;;24.07;53.68
48862;BME280;34681;49.188;-0.374;2023-09-19T09:32:17;101022.25;;;24.13;53.49
48862;BME280;34681;49.188;-0.374;2023-09-19T09:34:45;101027.59;;;24.14;53.58
48862;BME280;34681;49.188;-0.374;2023-09-19T09:37:15;101024.56;;;24.16;53.60
48862;BME280;34681;49.188;-0.374;2023-09-19T09:39:55;101028.88;;;24.18;53.28
48862;BME280;34681;49.188;-0.374;2023-09-19T09:42:35;101028.88;;;24.18;53.50
48862;BME280;34681;49.188;-0.374;2023-09-19T09:47:51;101035.53;;;24.17;53.67
48862;BME280;34681;49.188;-0.374;2023-09-19T09:50:32;101045.00;;;24.16;53.41
48862;BME280;34681;49.188;-0.374;2023-09-19T09:53:03;101034.91;;;24.15;53.59
48862;BME280;34681;49.188;-0.374;2023-09-19T09:56:04;101036.53;;;24.23;53.51
48862;BME280;34681;49.188;-0.374;2023-09-19T09:58:36;101032.75;;;24.17;53.42
48862;BME280;34681;49.188;-0.374;2023-09-19T10:01:03;101024.56;;;24.16;53.52
48862;BME280;34681;49.188;-0.374;2023-09-19T10:03:38;101014.25;;;24.16;53.61
48862;BME280;34681;49.188;-0.374;2023-09-19T10:06:09;101016.59;;;24.19;53.70
48862;BME280;34681;49.188;-0.374;2023-09-19T10:09:09;101012.94;;;24.19;53.65
48862;BME280;34681;49.188;-0.374;2023-09-19T10:12:08;101012.03;;;24.25;53.60
48862;BME280;34681;49.188;-0.374;2023-09-19T10:14:38;101009.91;;;24.20;53.39
48862;BME280;34681;49.188;-0.374;2023-09-19T10:17:05;101006.03;;;24.21;53.37
48862;BME280;34681;49.188;-0.374;2023-09-19T10:19:37;101010.31;;;24.24;53.33
48862;BME280;34681;49.188;-0.374;2023-09-19T10:22:12;101009.44;;;24.23;53.26
48862;BME280;34681;49.188;-0.374;2023-09-19T10:24:40;101018.25;;;24.27;53.36
48862;BME280;34681;49.188;-0.374;2023-09-19T10:27:07;101010.47;;;24.29;53.54
48862;BME280;34681;49.188;-0.374;2023-09-19T10:29:36;101009.84;;;24.27;53.37
48862;BME280;34681;49.188;-0.374;2023-09-19T10:32:05;101004.28;;;24.27;53.42
48862;BME280;34681;49.188;-0.374;2023-09-19T10:34:35;100999.91;;;24.31;53.45
48862;BME280;34681;49.188;-0.374;2023-09-19T10:37:02;101011.81;;;24.26;53.28
48862;BME280;34681;49.188;-0.374;2023-09-19T10:39:32;101011.81;;;24.26;53.08
48862;BME280;34681;49.188;-0.374;2023-09-19T10:42:01;101019.09;;;24.27;53.12
48862;BME280;34681;49.188;-0.374;2023-09-19T10:44:32;101010.94;;;24.26;53.37
48862;BME280;34681;49.188;-0.374;2023-09-19T10:46:57;101014.59;;;24.26;53.28
48862;BME280;34681;49.188;-0.374;2023-09-19T10:49:23;101009.00;;;24.26;53.28
48862;BME280;34681;49.188;-0.374;2023-09-19T10:51:52;101011.56;;;24.28;53.17
48862;BME280;34681;49.188;-0.374;2023-09-19T10:54:22;101003.56;;;24.31;53.07
48862;BME280;34681;49.188;-0.374;2023-09-19T10:56:52;100999.69;;;24.32;53.01
48862;BME280;34681;49.188;-0.374;2023-09-19T10:59:20;101006.19;;;24.33;52.90
48862;BME280;34681;49.188;-0.374;2023-09-19T11:01:47;100998.66;;;24.33;53.13
48862;BME280;34681;49.188;-0.374;2023-09-19T11:04:32;101002.84;;;24.43;53.01
48862;BME280;34681;49.188;-0.374;2023-09-19T11:07:12;100996.00;;;24.38;52.88
48862;BME280;34681;49.188;-0.374;2023-09-19T11:09:44;101006.78;;;24.35;52.74
48862;BME280;34681;49.188;-0.374;2023-09-19T11:15:02;100988.31;;;24.34;52.97
48862;BME280;34681;49.188;-0.374;2023-09-19T11:17:40;100997.56;;;24.34;53.00
48862;BME280;34681;49.188;-0.374;2023-09-19T11:46:53;100974.72;;;24.37;52.71
48862;BME280;34681;49.188;-0.374;2023-09-19T11:49:25;100968.31;;;24.30;52.89
48862;BME280;34681;49.188;-0.374;2023-09-19T11:51:55;100968.31;;;24.30;52.92
48862;BME280;34681;49.188;-0.374;2023-09-19T11:54:20;100973.69;;;24.32;52.50
48862;BME280;34681;49.188;-0.374;2023-09-19T11:56:57;100973.47;;;24.33;52.57
48862;BME280;34681;49.188;-0.374;2023-09-19T11:59:23;100969.59;;;24.34;52.48
48862;BME280;34681;49.188;-0.374;2023-09-19T12:01:52;100969.59;;;24.34;52.75
48862;BME280;34681;49.188;-0.374;2023-09-19T12:04:33;100968.25;;;24.37;52.50
48862;BME280;34681;49.188;-0.374;2023-09-19T12:07:13;100969.84;;;24.33;52.78
48862;BME280;34681;49.188;-0.374;2023-09-19T12:09:43;100961.63;;;24.31;52.57
48862;BME280;34681;49.188;-0.374;2023-09-19T12:12:19;100973.47;;;24.33;52.67
48862;BME280;34681;49.188;-0.374;2023-09-19T12:14:49;100967.22;;;24.31;52.81
48862;BME280;34681;49.188;-0.374;2023-09-19T12:17:14;100971.09;;;24.30;52.66
48862;BME280;34681;49.188;-0.374;2023-09-19T12:19:55;100968.75;;;24.34;52.68
48862;BME280;34681;49.188;-0.374;2023-09-19T12:22:21;100956.50;;;24.28;52.59
48862;BME280;34681;49.188;-0.374;2023-09-19T12:24:47;100956.91;;;24.32;52.75
48862;BME280;34681;49.188;-0.374;2023-09-19T12:27:13;100969.16;;;24.31;52.38
48862;BME280;34681;49.188;-0.374;2023-09-19T12:29:46;100969.84;;;24.33;52.54
48862;BME280;34681;49.188;-0.374;2023-09-19T12:32:12;100967.44;;;24.30;52.80
48862;BME280;34681;49.188;-0.374;2023-09-19T12:34:40;100974.13;;;24.29;52.50
48862;BME280;34681;49.188;-0.374;2023-09-19T12:37:13;100969.38;;;24.29;52.49
48862;BME280;34681;49.188;-0.374;2023-09-19T12:39:46;100968.78;;;24.27;52.55
48862;BME280;34681;49.188;-0.374;2023-09-19T12:42:17;100974.97;;;24.29;52.57
48862;BME280;34681;49.188;-0.374;2023-09-19T12:44:48;100968.09;;;24.32;52.45
48862;BME280;34681;49.188;-0.374;2023-09-19T12:47:17;100970.69;;;24.33;52.63
48862;BME280;34681;49.188;-0.374;2023-09-19T12:50:11;100962.44;;;24.38;52.42
48862;BME280;34681;49.188;-0.374;2023-09-19T12:52:47;100962.50;;;24.32;52.76
48862;BME280;34681;49.188;-0.374;2023-09-19T12:55:20;100960.56;;;24.32;52.38
48862;BME280;34681;49.188;-0.374;2023-09-19T13:00:35;100962.34;;;24.27;52.58
48862;BME280;34681;49.188;-0.374;2023-09-19T13:08:27;100949.38;;;24.32;52.54
48862;BME280;34681;49.188;-0.374;2023-09-19T13:11:13;100941.63;;;24.34;52.39
48862;BME280;34681;49.188;-0.374;2023-09-19T13:13:40;100947.03;;;24.29;52.53
48862;BME280;34681;49.188;-0.374;2023-09-19T13:16:06;100937.53;;;24.30;52.60
48862;BME280;34681;49.188;-0.374;2023-09-19T13:18:50;100943.78;;;24.32;52.65
48862;BME280;34681;49.188;-0.374;2023-09-19T13:21:28;100949.59;;;24.31;52.49
48862;BME280;34681;49.188;-0.374;2023-09-19T13:23:55;100946.66;;;24.26;52.86
48862;BME280;34681;49.188;-0.374;2023-09-19T13:26:27;100941.91;;;24.26;52.78
48862;BME280;34681;49.188;-0.374;2023-09-19T13:28:56;100951.38;;;24.25;52.76
48862;BME280;34681;49.188;-0.374;2023-09-19T13:31:21;100942.16;;;24.25;52.69
48862;BME280;34681;49.188;-0.374;2023-09-19T13:33:48;100949.66;;;24.24;52.66
48862;BME280;34681;49.188;-0.374;2023-09-19T13:36:14;100946.00;;;24.24;52.84
48862;BME280;34681;49.188;-0.374;2023-09-19T13:38:40;100943.19;;;24.24;52.63
48862;BME280;34681;49.188;-0.374;2023-09-19T13:41:08;100945.16;;;24.23;52.61
48862;BME280;34681;49.188;-0.374;2023-09-19T13:43:35;100940.41;;;24.24;52.84
48862;BME280;34681;49.188;-0.374;2023-09-19T13:46:01;100939.34;;;24.25;52.88
48862;BME280;34681;49.188;-0.374;2023-09-19T13:48:28;100943.84;;;24.26;52.57